Flight Track Log - Related Links

Times and Time Zones

All times are in EDT time to prevent confusion due to time zone crossing. See the CPZ5718 flight status page for this flight to view local times or setup timezone preferences in your user account.

Time Position Orientation Groundspeed Altitude Reporting Facility
EDT Latitude Longitude Course Direction KTS MPH feet Rate Location/Type
Fri 06:46:34 AM 42.7756 -73.8064 281° West 160 184 1,300  Level Boston Center
Fri 06:47:40 AM 42.8272 -73.8556 325° Northwest 221 254 3,000 2,265 Climbing Boston Center
Fri 06:49:00 AM 42.8392 -74.3681 283° West  Level FlightAware Approximate
Fri 06:49:05 AM 42.8928 -73.9336 319° Northwest 261 300 7,000  Level Boston Center
Fri 06:50:00 AM 42.8632 -74.5127 283° West  Level FlightAware Approximate
Fri 06:50:03 AM 42.9522 -74.0061 318° Northwest 261 300 9,800  Level Boston Center
Fri 06:51:00 AM 42.8967 -74.6473 281° West  Level FlightAware Approximate
Fri 06:51:04 AM 43.0078 -74.0756 318° Northwest 287 330 11,100  Level Boston Center
Fri 06:52:04 AM 43.0875 -74.1714 319° Northwest 325 374 13,800 2,400 Climbing Boston Center
Fri 06:53:04 AM 43.1172 -74.2747 292° West 327 376 15,900 2,118 Climbing Boston Center
Fri 06:54:03 AM 43.1419 -74.4119 284° West 337 388 18,000 1,866 Climbing Boston Center
Fri 06:55:03 AM 43.1625 -74.5494 282° West 354 407 19,600 1,750 Climbing Boston Center
Fri 06:56:03 AM 43.1850 -74.6811 283° West 359 413 21,500 1,736 Climbing Boston Center
Fri 06:57:04 AM 43.2072 -74.8186 283° West 364 419 23,100 1,587 Climbing Boston Center
Fri 06:58:04 AM 43.2311 -74.9594 283° West 369 425 24,700 1,462 Climbing Boston Center
Fri 06:59:03 AM 43.2511 -75.0997 281° West 376 433 26,000 1,100 Climbing Boston Center
Fri 07:00:04 AM 43.2711 -75.2175 283° West 382 440 26,900 1,050 Climbing Boston Center
Fri 07:01:03 AM 43.2961 -75.3842 282° West 396 456 28,100 1,000 Climbing Boston Center
Fri 07:02:04 AM 43.3214 -75.5311 283° West 403 464 28,900 1,082 Climbing Boston Center
Fri 07:03:05 AM 43.3444 -75.6808 282° West 403 464 30,300 1,091 Climbing Boston Center
Fri 07:04:16 AM 43.3672 -75.8278 282° West 397 457 31,300 779 Climbing Boston Center
Fri 07:05:16 AM 43.3953 -76.0036 282° West 397 457 32,000 347 Climbing Boston Center
Fri 07:06:17 AM 43.4175 -76.1536 282° West 397 457 32,000  Level Boston Center
Fri 07:08:14 AM 43.4500 -76.4333 279° West 410 472 32,000 34 Level Toronto Center
Fri 07:09:14 AM 43.4667 -76.6000 278° West 410 472 32,100 550 Climbing Toronto Center
Fri 07:10:14 AM 43.5000 -76.7333 289° West 410 472 33,100 912 Climbing Toronto Center
Fri 07:11:19 AM 43.5256 -76.9183 281° West 408 470 34,000 432 Climbing Cleveland Center
Fri 07:12:19 AM 43.5469 -77.0661 281° West 402 463 34,000  Level Cleveland Center
Fri 07:13:14 AM 43.5500 -77.2000 272° West 400 460 34,000  Level Toronto Center
Fri 07:14:14 AM 43.5667 -77.3500 279° West 400 460 34,000 50 Level Toronto Center
Fri 07:15:14 AM 43.6000 -77.5000 287° West 400 460 34,100 550 Climbing Toronto Center
Fri 07:16:14 AM 43.6167 -77.6500 279° West 400 460 35,100 950 Climbing Toronto Center
Fri 07:17:14 AM 43.6333 -77.7833 280° West 390 449 36,000 450 Climbing Toronto Center
Fri 07:18:14 AM 43.6500 -77.9333 279° West 380 437 36,000  Level Toronto Center
Fri 07:19:14 AM 43.6833 -78.0833 287° West 400 460 36,000  Level Toronto Center
Fri 07:20:14 AM 43.7000 -78.2333 279° West 400 460 36,000  Level Toronto Center
Fri 07:21:14 AM 43.7167 -78.3833 279° West 400 460 36,000  Level Toronto Center
Fri 07:22:14 AM 43.7500 -78.5500 286° West 400 460 36,000  Level Toronto Center
Fri 07:23:14 AM 43.7667 -78.6833 280° West 400 460 36,000  Level Toronto Center
Fri 07:24:14 AM 43.7833 -78.8500 278° West 400 460 36,000  Level Toronto Center
Fri 07:25:14 AM 43.8000 -78.9833 280° West 400 460 36,000  Level Toronto Center
Fri 07:26:14 AM 43.8167 -79.1500 278° West 400 460 36,000  Level Toronto Center
Fri 07:27:14 AM 43.8333 -79.3167 278° West 400 460 36,000  Level Toronto Center
Fri 07:28:14 AM 43.8500 -79.4500 280° West 400 460 36,000  Level Toronto Center
Fri 07:29:14 AM 43.8667 -79.6167 278° West 400 460 36,000  Level Toronto Center
Fri 07:30:14 AM 43.8833 -79.7667 279° West 400 460 36,000  Level Toronto Center
Fri 07:31:14 AM 43.9000 -79.9167 279° West 400 460 36,000  Level Toronto Center
Fri 07:32:14 AM 43.9167 -80.0667 279° West 400 460 36,000  Level Toronto Center
Fri 07:33:14 AM 43.9333 -80.2167 279° West 400 460 36,000  Level Toronto Center
Fri 07:34:14 AM 43.9667 -80.3667 287° West 400 460 36,000  Level Toronto Center
Fri 07:35:14 AM 43.9833 -80.5333 278° West 400 460 36,000  Level Toronto Center
Fri 07:36:14 AM 44.0000 -80.7000 278° West 410 472 36,000  Level Toronto Center
Fri 07:37:14 AM 44.0000 -80.8333 270° West 410 472 36,000  Level Toronto Center
Fri 07:38:14 AM 44.0167 -81.0000 278° West 410 472 36,000  Level Toronto Center
Fri 07:39:14 AM 44.0333 -81.1333 280° West 410 472 36,000  Level Toronto Center
Fri 07:40:14 AM 44.0500 -81.3000 278° West 410 472 36,000  Level Toronto Center
Fri 07:41:14 AM 44.0667 -81.4667 278° West 410 472 36,000  Level Toronto Center
Fri 07:42:14 AM 44.0833 -81.6333 278° West 410 472 36,000  Level Toronto Center
Fri 07:43:14 AM 44.1000 -81.8000 278° West 410 472 36,000  Level Toronto Center
Fri 07:44:14 AM 44.1000 -81.9333 270° West 410 472 36,000  Level Toronto Center
Fri 07:45:14 AM 44.1333 -82.1000 286° West 410 472 36,000  Level Toronto Center
Fri 07:46:14 AM 44.1500 -82.2667 278° West 410 472 36,000  Level Toronto Center
Fri 07:47:14 AM 44.1667 -82.4167 279° West 420 483 36,000  Level Toronto Center
Fri 07:48:14 AM 44.1833 -82.5833 278° West 420 483 36,000  Level Toronto Center
Fri 07:49:14 AM 44.1833 -82.7333 270° West 420 483 36,000  Level Toronto Center
Fri 07:50:14 AM 44.2000 -82.8833 279° West 420 483 36,000  Level Toronto Center
Fri 07:50:48 AM 44.2197 -82.9808 286° West 419 482 36,000  Level Minneapolis Center
Fri 07:51:49 AM 44.2297 -83.1097 276° West 418 481 36,000  Level Minneapolis Center
Fri 07:52:50 AM 44.2494 -83.3044 278° West 422 486 36,000  Level Minneapolis Center
Fri 07:53:51 AM 44.2619 -83.4653 276° West 421 484 36,000  Level Minneapolis Center
Fri 07:54:52 AM 44.2744 -83.6269 276° West 420 483 36,000  Level Minneapolis Center
Fri 07:55:54 AM 44.2919 -83.8239 277° West 426 490 36,000  Level Minneapolis Center
Fri 07:56:55 AM 44.3031 -83.9839 276° West 419 482 36,000  Level Minneapolis Center
Fri 07:57:56 AM 44.3158 -84.1453 276° West 420 483 36,000  Level Minneapolis Center
Fri 07:58:57 AM 44.3286 -84.3081 276° West 421 484 36,000  Level Minneapolis Center
Fri 07:59:59 AM 44.3406 -84.4717 276° West 424 488 36,000  Level Minneapolis Center
Fri 08:01:00 AM 44.3525 -84.6358 276° West 425 489 36,000  Level Minneapolis Center
Fri 08:02:01 AM 44.3656 -84.7992 276° West 424 488 36,000  Level Minneapolis Center
Fri 08:03:03 AM 44.3772 -84.9608 276° West 420 483 36,000  Level Minneapolis Center
Fri 08:04:04 AM 44.3869 -85.1222 275° West 418 481 36,000  Level Minneapolis Center
Fri 08:05:05 AM 44.3992 -85.2844 276° West 420 483 36,000  Level Minneapolis Center
Fri 08:06:07 AM 44.4117 -85.4803 275° West 421 484 36,000  Level Minneapolis Center
Fri 08:07:08 AM 44.4222 -85.6433 275° West 422 486 36,000  Level Minneapolis Center
Fri 08:08:09 AM 44.4317 -85.8072 275° West 421 484 36,000  Level Minneapolis Center
Fri 08:09:11 AM 44.4417 -85.9714 275° West 421 484 36,000  Level Minneapolis Center
Fri 08:10:12 AM 44.4519 -86.1367 275° West 422 486 36,000  Level Minneapolis Center
Fri 08:11:25 AM 44.4617 -86.3014 275° West 422 486 36,000  Level Minneapolis Center
Fri 08:12:27 AM 44.4728 -86.4997 275° West 424 488 36,000  Level Minneapolis Center
Fri 08:13:28 AM 44.4806 -86.6319 275° West 425 489 36,000  Level Minneapolis Center
Fri 08:14:30 AM 44.4908 -86.8294 274° West 424 488 36,000  Level Minneapolis Center
Fri 08:15:32 AM 44.5000 -86.9939 275° West 423 487 36,000  Level Minneapolis Center
Fri 08:16:33 AM 44.5083 -87.1583 274° West 424 488 36,000  Level Minneapolis Center
Fri 08:17:35 AM 44.5175 -87.3564 274° West 425 489 36,000  Level Minneapolis Center
Fri 08:18:36 AM 44.5261 -87.5217 274° West 426 490 36,000  Level Minneapolis Center
Fri 08:19:39 AM 44.5347 -87.6869 274° West 426 490 36,000  Level Minneapolis Center
Fri 08:20:40 AM 44.5419 -87.8525 274° West 426 490 36,000  Level Minneapolis Center
Fri 08:21:42 AM 44.5469 -88.0172 272° West 423 487 36,000  Level Minneapolis Center
Fri 08:22:55 AM 44.5550 -88.1847 274° West 430 495 36,000  Level Minneapolis Center
Fri 08:23:57 AM 44.5800 -88.4033 279° West 428 493 36,000  Level Minneapolis Center
Fri 08:24:58 AM 44.5992 -88.5697 279° West 432 497 36,000  Level Minneapolis Center
Fri 08:26:00 AM 44.6186 -88.7356 279° West 433 498 36,000  Level Minneapolis Center
Fri 08:27:01 AM 44.6369 -88.9050 279° West 436 502 36,000  Level Minneapolis Center
Fri 08:28:15 AM 44.6556 -89.0719 279° West 435 501 36,000  Level Minneapolis Center
Fri 08:29:29 AM 44.6803 -89.2933 279° West 433 498 36,000  Level Minneapolis Center
Fri 08:30:43 AM 44.7014 -89.4906 279° West 436 502 36,000 -222 Level Minneapolis Center
Fri 08:31:44 AM 44.7236 -89.6875 279° West 438 504 35,500 -976 Descending Minneapolis Center
Fri 08:32:46 AM 44.7433 -89.8847 278° West 439 505 34,000 -1,659 Descending Minneapolis Center
Fri 08:33:47 AM 44.7611 -90.0567 278° West 441 507 32,100 -976 Descending Minneapolis Center
Fri 08:34:49 AM 44.7831 -90.2289 280° West 445 512 32,000 -48 Descending Minneapolis Center
Fri 08:35:51 AM 44.8075 -90.4006 281° West 448 516 32,000  Level Minneapolis Center
Fri 08:36:52 AM 44.8317 -90.5811 281° West 447 514 32,000  Level Minneapolis Center
Fri 08:37:54 AM 44.8558 -90.7631 281° West 450 518 32,000  Level Minneapolis Center
Fri 08:38:55 AM 44.8786 -90.9275 281° West 453 521 32,000 -1,122 Level Minneapolis Center
Fri 08:39:57 AM 44.9006 -91.1022 280° West 453 521 29,700 -2,488 Descending Minneapolis Center
Fri 08:40:58 AM 44.9217 -91.2761 280° West 453 521 26,900 -2,634 Descending Minneapolis Center
Fri 08:42:00 AM 44.9442 -91.4436 281° West 443 510 24,300 -2,780 Descending Minneapolis Center
Fri 08:43:01 AM 44.9686 -91.6353 280° West 423 487 21,200 -2,705 Descending Minneapolis Center
Fri 08:44:02 AM 44.9875 -91.7872 280° West 406 467 18,800 -2,390 Descending Minneapolis Center
Fri 08:45:04 AM 45.0067 -91.9383 280° West 392 451 16,300 -2,341 Descending Minneapolis Center
Fri 08:46:05 AM 45.0239 -92.0822 280° West 375 432 14,000 -2,195 Descending Minneapolis Center
Fri 08:47:07 AM 45.0408 -92.2222 280° West 364 419 11,800 -1,463 Descending Minneapolis Center
Fri 08:48:08 AM 45.0378 -92.3572 268° West 346 398 11,000 -683 Descending Minneapolis Center
Fri 08:49:10 AM 44.9986 -92.4750 245° Southwest 326 375 10,400 -976 Descending Minneapolis Center
Fri 08:50:11 AM 44.9592 -92.5731 240° Southwest 291 335 9,000 -1,659 Descending Minneapolis Center
Fri 08:51:13 AM 44.9147 -92.6889 242° Southwest 281 323 7,000 -976 Descending Minneapolis Center
Fri 08:52:14 AM 44.8817 -92.7772 242° Southwest 258 297 7,000 -488 Level Minneapolis Center
Fri 08:53:16 AM 44.8536 -92.8544 243° Southwest 226 260 6,000 -1,024 Descending Minneapolis Center
Fri 08:54:17 AM 44.8314 -92.9336 248° West 221 254 4,900 -1,122 Descending Minneapolis Center
Fri 08:55:19 AM 44.8317 -93.0142 270° West 208 239 3,700 -1,073 Descending Minneapolis Center
Fri 08:56:20 AM 44.8339 -93.0808 273° West 177 204 2,700 -878 Descending Minneapolis Center
Fri 08:57:22 AM 44.8528 -93.1289 299° West 140 161 1,900 -780 Descending Minneapolis Center
Fri 08:58:23 AM 44.8750 -93.1797 302° West 129 148 1,100 -787 Descending Minneapolis Center

Login

Don't have an account? Register now (free) for customized features, flight alerts, and more!